Time;durP1;ratioP1;P1;durP2;ratioP2;P2;SDS_P1;SDS_P2;PMS_P1;PMS_P2;Temp;Humidity;BMP_temperature;BMP_pressure;BME280_temperature;BME280_humidity;BME280_pressure;Samples;Min_cycle;Max_cycle;Signal;HPM_P1;HPM_P2
2023/08/06 00:00:39;;;;;;;;;;;;;;;15.02;100.00;100311.38;5000793;28;19917;-57
2023/08/06 00:03:04;;;;;;;;;;;;;;;15.00;100.00;100318.38;5001665;28;19921;-57
2023/08/06 00:05:29;;;;;;;;;;;;;;;15.01;100.00;100314.03;5001857;28;20004;-58
2023/08/06 00:07:54;;;;;;;;;;;;;;;15.01;100.00;100314.03;4999776;28;19917;-58
2023/08/06 00:10:19;;;;;;;;;;;;;;;15.01;100.00;100317.50;4995501;28;19940;-57
2023/08/06 00:12:45;;;;;;;;;;;;;;;15.01;100.00;100308.78;5003031;28;19921;-57
2023/08/06 00:15:10;;;;;;;;;;;;;;;15.02;100.00;100314.00;4997222;28;19928;-57
2023/08/06 00:17:35;;;;;;;;;;;;;;;15.04;100.00;100319.25;5000150;28;20374;-58
2023/08/06 00:20:04;;;;;;;;;;;;;;;15.05;100.00;100303.50;5002392;28;20058;-57
2023/08/06 00:22:30;;;;;;;;;;;;;;;15.06;100.00;100307.00;4998152;28;19921;-58
2023/08/06 00:24:57;;;;;;;;;;;;;;;15.07;100.00;100306.13;4996243;28;19910;-57
2023/08/06 00:27:22;;;;;;;;;;;;;;;15.06;100.00;100304.38;5008724;28;19917;-57
2023/08/06 00:29:47;;;;;;;;;;;;;;;15.05;100.00;100306.13;5009087;28;19919;-58
2023/08/06 00:32:12;;;;;;;;;;;;;;;15.06;100.00;100304.38;4996054;28;20160;-57
2023/08/06 00:34:38;;;;;;;;;;;;;;;15.05;100.00;100300.88;5008930;28;20363;-58
2023/08/06 00:37:03;;;;;;;;;;;;;;;15.02;100.00;100300.91;5006975;28;19917;-58
2023/08/06 00:39:28;;;;;;;;;;;;;;;14.99;100.00;100298.28;5004584;28;19980;-58
2023/08/06 00:41:54;;;;;;;;;;;;;;;14.99;100.00;100305.25;5009194;28;19920;-58
2023/08/06 00:44:19;;;;;;;;;;;;;;;14.99;100.00;100300.03;5007948;28;19913;-58
2023/08/06 00:46:44;;;;;;;;;;;;;;;14.98;100.00;100288.66;5000395;28;19948;-58
2023/08/06 00:49:10;;;;;;;;;;;;;;;14.99;100.00;100292.16;5000647;28;19920;-58
2023/08/06 00:51:35;;;;;;;;;;;;;;;14.95;100.00;100288.69;5005154;28;20335;-58
2023/08/06 00:54:01;;;;;;;;;;;;;;;14.93;100.00;100290.41;4984579;28;20339;-57
2023/08/06 00:56:26;;;;;;;;;;;;;;;14.91;100.00;100289.56;5001554;28;19945;-58
2023/08/06 00:58:52;;;;;;;;;;;;;;;14.89;100.00;100291.34;5006140;28;19937;-58
2023/08/06 01:01:17;;;;;;;;;;;;;;;14.89;100.00;100288.72;5004031;28;19914;-58
2023/08/06 01:03:42;;;;;;;;;;;;;;;14.90;100.00;100290.44;5001977;28;19993;-58
2023/08/06 01:06:07;;;;;;;;;;;;;;;14.89;100.00;100289.56;4996259;28;19949;-58
2023/08/06 01:08:42;;;;;;;;;;;;;;;14.90;100.00;100295.69;5003088;28;20268;-58
2023/08/06 01:11:26;;;;;;;;;;;;;;;14.88;100.00;100286.94;5005880;28;19920;-58
2023/08/06 01:13:58;;;;;;;;;;;;;;;14.87;100.00;100287.81;4985978;28;19921;-58
2023/08/06 01:16:23;;;;;;;;;;;;;;;14.87;100.00;100290.44;5003400;28;20312;-58
2023/08/06 01:18:49;;;;;;;;;;;;;;;14.84;100.00;100291.31;4991102;28;19917;-57
2023/08/06 01:21:18;;;;;;;;;;;;;;;14.83;100.00;100288.69;4991119;28;19909;-57
2023/08/06 01:23:43;;;;;;;;;;;;;;;14.82;100.00;100286.97;5005985;28;19921;-57
2023/08/06 01:26:14;;;;;;;;;;;;;;;14.81;100.00;100291.34;4992491;28;20372;-58
2023/08/06 01:28:39;;;;;;;;;;;;;;;14.83;100.00;100291.31;4991129;28;20403;-57
2023/08/06 01:31:07;;;;;;;;;;;;;;;14.83;100.00;100292.22;4991111;28;19953;-58
2023/08/06 01:33:34;;;;;;;;;;;;;;;14.86;100.00;100283.44;4990959;28;19975;-58
2023/08/06 01:36:00;;;;;;;;;;;;;;;14.87;100.00;100291.31;4991037;28;20436;-58
2023/08/06 01:38:28;;;;;;;;;;;;;;;14.89;100.00;100284.31;4996109;28;19945;-58
2023/08/06 01:40:53;;;;;;;;;;;;;;;14.92;100.00;100286.06;4993497;28;19918;-58
2023/08/06 01:43:18;;;;;;;;;;;;;;;14.93;100.00;100286.06;5007823;28;19943;-58
2023/08/06 01:45:43;;;;;;;;;;;;;;;14.92;100.00;100286.06;5006619;28;20341;-58
2023/08/06 01:48:08;;;;;;;;;;;;;;;14.91;100.00;100284.31;4999586;28;20598;-58
2023/08/06 01:50:33;;;;;;;;;;;;;;;14.87;100.00;100280.81;5003934;28;19913;-58
2023/08/06 01:52:59;;;;;;;;;;;;;;;14.86;100.00;100281.72;5006489;28;19921;-58
2023/08/06 01:55:24;;;;;;;;;;;;;;;14.84;100.00;100288.69;4988332;28;19971;-58
2023/08/06 01:57:49;;;;;;;;;;;;;;;14.80;100.00;100283.47;4986964;28;19917;-58
2023/08/06 02:00:14;;;;;;;;;;;;;;;14.76;100.00;100280.00;4996907;28;19917;-58
2023/08/06 02:02:40;;;;;;;;;;;;;;;14.74;100.00;100290.50;5010067;28;19940;-58
2023/08/06 02:05:06;;;;;;;;;;;;;;;14.70;100.00;100283.50;5011032;28;19949;-58
2023/08/06 02:07:31;;;;;;;;;;;;;;;14.69;100.00;100286.13;5009664;28;19968;-58
2023/08/06 02:09:56;;;;;;;;;;;;;;;14.67;100.00;100283.53;5003882;28;20097;-57
2023/08/06 02:12:21;;;;;;;;;;;;;;;14.65;100.00;100290.50;5008392;28;19921;-58
2023/08/06 02:14:47;;;;;;;;;;;;;;;14.63;100.00;100292.25;5004827;28;20499;-58
2023/08/06 02:17:12;;;;;;;;;;;;;;;14.64;100.00;100290.50;5009442;28;19921;-58
2023/08/06 02:19:37;;;;;;;;;;;;;;;14.64;100.00;100291.38;5000004;28;19999;-58
2023/08/06 02:22:02;;;;;;;;;;;;;;;14.65;100.00;100280.00;4998477;28;19913;-58
2023/08/06 02:24:27;;;;;;;;;;;;;;;14.66;100.00;100279.13;4993674;28;20405;-57
2023/08/06 02:26:55;;;;;;;;;;;;;;;14.66;100.00;100279.13;4993641;28;19991;-58
2023/08/06 02:29:20;;;;;;;;;;;;;;;14.65;100.00;100290.50;4998548;28;19913;-58
2023/08/06 02:31:45;;;;;;;;;;;;;;;14.65;100.00;100290.50;5012188;28;19920;-58
2023/08/06 02:34:11;;;;;;;;;;;;;;;14.67;100.00;100287.88;4993416;28;19945;-58
2023/08/06 02:36:36;;;;;;;;;;;;;;;14.67;100.00;100282.63;4993520;28;19988;-58
2023/08/06 02:39:01;;;;;;;;;;;;;;;14.67;100.00;100275.66;4993646;28;19910;-58
2023/08/06 02:41:26;;;;;;;;;;;;;;;14.68;100.00;100279.13;4993703;28;20368;-58
2023/08/06 02:43:52;;;;;;;;;;;;;;;14.68;100.00;100284.38;5001844;28;20400;-58
2023/08/06 02:46:17;;;;;;;;;;;;;;;14.67;100.00;100277.38;5001887;28;19920;-58
2023/08/06 02:48:43;;;;;;;;;;;;;;;14.66;100.00;100273.91;5007787;28;19914;-56
2023/08/06 02:51:08;;;;;;;;;;;;;;;14.67;100.00;100275.66;4993648;28;19920;-58
2023/08/06 02:53:33;;;;;;;;;;;;;;;14.68;100.00;100274.75;5000672;28;19929;-56
2023/08/06 02:55:58;;;;;;;;;;;;;;;14.69;100.00;100270.41;5008269;28;19918;-58
2023/08/06 02:58:24;;;;;;;;;;;;;;;14.70;100.00;100269.50;5004720;28;20370;-58
2023/08/06 03:01:02;;;;;;;;;;;;;;;14.70;100.00;100272.13;4999296;28;19953;-58
2023/08/06 03:03:28;;;;;;;;;;;;;;;14.72;100.00;100270.38;4997594;28;19917;-58
2023/08/06 03:05:53;;;;;;;;;;;;;;;14.74;100.00;100273.88;4973082;28;19964;-58
2023/08/06 03:08:22;;;;;;;;;;;;;;;14.75;100.00;100275.63;4985745;28;19921;-58
2023/08/06 03:10:47;;;;;;;;;;;;;;;14.77;100.00;100268.59;4991404;28;19914;-58
2023/08/06 03:13:12;;;;;;;;;;;;;;;14.77;100.00;100265.97;4984588;28;19976;-58
2023/08/06 03:15:37;;;;;;;;;;;;;;;14.79;100.00;100269.50;4975985;28;19925;-58
2023/08/06 03:18:03;;;;;;;;;;;;;;;14.80;100.00;100272.97;4986349;28;20011;-58
2023/08/06 03:20:28;;;;;;;;;;;;;;;14.80;100.00;100278.22;4983773;28;20364;-58
2023/08/06 03:22:53;;;;;;;;;;;;;;;14.83;100.00;100278.22;4991025;28;19918;-58
2023/08/06 03:25:18;;;;;;;;;;;;;;;14.83;100.00;100272.97;4980328;28;19980;-58
2023/08/06 03:27:43;;;;;;;;;;;;;;;14.83;100.00;100278.22;4983661;28;20328;-58
2023/08/06 03:30:09;;;;;;;;;;;;;;;14.82;100.00;100276.50;4987013;28;20339;-57
2023/08/06 03:32:34;;;;;;;;;;;;;;;14.81;100.00;100278.22;4988598;28;19944;-57
2023/08/06 03:34:59;;;;;;;;;;;;;;;14.80;100.00;100279.09;4986852;28;19960;-57
2023/08/06 03:37:24;;;;;;;;;;;;;;;14.79;100.00;100274.75;4980011;28;20406;-57
2023/08/06 03:39:49;;;;;;;;;;;;;;;14.80;100.00;100283.47;4982837;28;19972;-57
2023/08/06 03:42:15;;;;;;;;;;;;;;;14.78;100.00;100275.59;4985332;28;19968;-57
2023/08/06 03:44:40;;;;;;;;;;;;;;;14.78;100.00;100275.59;4988786;28;20304;-57
2023/08/06 03:47:05;;;;;;;;;;;;;;;14.80;100.00;100281.72;4984787;28;20020;-57
2023/08/06 03:49:30;;;;;;;;;;;;;;;14.80;100.00;100272.97;4988715;28;20000;-57
2023/08/06 03:51:55;;;;;;;;;;;;;;;14.82;100.00;100281.72;4988300;28;20015;-57
2023/08/06 03:54:21;;;;;;;;;;;;;;;14.83;100.00;100280.84;4988741;28;19964;-57
2023/08/06 03:56:46;;;;;;;;;;;;;;;14.80;100.00;100278.22;4985186;28;19918;-57
2023/08/06 03:59:11;;;;;;;;;;;;;;;14.81;100.00;100287.84;4986977;28;20252;-57
2023/08/06 04:01:36;;;;;;;;;;;;;;;14.82;100.00;100287.84;4985490;28;19914;-57
2023/08/06 04:04:02;;;;;;;;;;;;;;;14.83;100.00;100286.97;4989831;28;19914;-57
2023/08/06 04:06:27;;;;;;;;;;;;;;;14.84;100.00;100287.84;4987370;28;19921;-57
2023/08/06 04:08:52;;;;;;;;;;;;;;;14.83;100.00;100280.84;4997815;28;19948;-56
2023/08/06 04:11:17;;;;;;;;;;;;;;;14.85;100.00;100287.81;5008731;28;20403;-57
2023/08/06 04:13:43;;;;;;;;;;;;;;;14.84;100.00;100285.22;5010291;28;20376;-57
2023/08/06 04:16:09;;;;;;;;;;;;;;;14.84;100.00;100290.47;4989687;28;19917;-57
2023/08/06 04:18:34;;;;;;;;;;;;;;;14.84;100.00;100288.69;4991857;28;19964;-57
2023/08/06 04:21:01;;;;;;;;;;;;;;;14.86;100.00;100291.31;4997506;28;20427;-57
2023/08/06 04:23:26;;;;;;;;;;;;;;;14.86;100.00;100294.81;4992374;28;19953;-56
2023/08/06 04:25:51;;;;;;;;;;;;;;;14.88;100.00;100302.69;5011056;28;19941;-57
2023/08/06 04:28:16;;;;;;;;;;;;;;;14.89;100.00;100293.94;5011178;28;19909;-57
2023/08/06 04:30:42;;;;;;;;;;;;;;;14.91;100.00;100298.28;5009436;28;19923;-57
2023/08/06 04:33:07;;;;;;;;;;;;;;;14.91;100.00;100302.69;4991571;28;19914;-58
2023/08/06 04:35:32;;;;;;;;;;;;;;;14.90;100.00;100300.91;4991501;28;20000;-57
2023/08/06 04:37:57;;;;;;;;;;;;;;;14.91;100.00;100300.91;4992497;28;19906;-57
2023/08/06 04:40:22;;;;;;;;;;;;;;;14.92;100.00;100307.06;4991533;28;20324;-57
2023/08/06 04:42:47;;;;;;;;;;;;;;;14.92;100.00;100302.66;4973867;28;19910;-58
2023/08/06 04:45:13;;;;;;;;;;;;;;;14.94;100.00;100310.53;5000264;28;20168;-58
2023/08/06 04:47:38;;;;;;;;;;;;;;;14.96;100.00;100314.00;5006892;28;20343;-57
2023/08/06 04:50:03;;;;;;;;;;;;;;;14.98;100.00;100308.78;4996241;28;20427;-58
2023/08/06 04:52:28;;;;;;;;;;;;;;;15.00;100.00;100314.88;4992002;28;19913;-58
2023/08/06 04:54:54;;;;;;;;;;;;;;;15.01;100.00;100317.50;5006656;28;19925;-57
2023/08/06 04:57:20;;;;;;;;;;;;;;;14.99;100.00;100316.66;5002841;28;20288;-57
2023/08/06 04:59:45;;;;;;;;;;;;;;;14.94;100.00;100313.16;5008877;28;19913;-58
2023/08/06 05:02:10;;;;;;;;;;;;;;;14.91;100.00;100313.16;4997306;28;19913;-57
2023/08/06 05:04:35;;;;;;;;;;;;;;;14.85;100.00;100310.56;5002622;28;19956;-58
2023/08/06 05:07:00;;;;;;;;;;;;;;;14.82;100.00;100315.84;4997233;28;19918;-58
2023/08/06 05:09:26;;;;;;;;;;;;;;;14.81;100.00;100321.94;5003975;28;19920;-58
2023/08/06 05:11:51;;;;;;;;;;;;;;;14.81;100.00;100322.81;5006519;28;19932;-57
2023/08/06 05:14:16;;;;;;;;;;;;;;;14.78;100.00;100322.81;5003932;28;19917;-57
2023/08/06 05:16:41;;;;;;;;;;;;;;;14.75;100.00;100317.59;4995610;28;19909;-58
2023/08/06 05:19:06;;;;;;;;;;;;;;;14.72;100.00;100323.69;4998227;28;19914;-58
2023/08/06 05:21:31;;;;;;;;;;;;;;;14.72;100.00;100334.19;5008190;28;19921;-58
2023/08/06 05:23:57;;;;;;;;;;;;;;;14.71;100.00;100342.91;5002215;28;20458;-57
2023/08/06 05:26:22;;;;;;;;;;;;;;;14.72;100.00;100346.44;5007820;28;19956;-58
2023/08/06 05:28:47;;;;;;;;;;;;;;;14.76;100.00;100354.28;5006385;28;19928;-58
2023/08/06 05:31:12;;;;;;;;;;;;;;;14.81;100.00;100353.41;5005088;28;20419;-58
2023/08/06 05:33:38;;;;;;;;;;;;;;;14.87;100.00;100354.25;5008245;28;20028;-58
2023/08/06 05:36:03;;;;;;;;;;;;;;;14.90;100.00;100358.63;5013552;28;20004;-58
2023/08/06 05:38:29;;;;;;;;;;;;;;;14.89;100.00;100360.41;5011279;28;20314;-58
2023/08/06 05:40:55;;;;;;;;;;;;;;;14.90;100.00;100362.16;5003299;28;20318;-58
2023/08/06 05:43:20;;;;;;;;;;;;;;;14.93;100.00;100366.50;5002084;28;19917;-58
2023/08/06 05:45:46;;;;;;;;;;;;;;;14.94;100.00;100374.34;4997123;28;19921;-58
2023/08/06 05:48:11;;;;;;;;;;;;;;;14.97;100.00;100373.47;4989605;28;19914;-58
2023/08/06 05:50:36;;;;;;;;;;;;;;;15.02;100.00;100378.72;5011128;28;19920;-58
2023/08/06 05:53:01;;;;;;;;;;;;;;;15.06;100.00;100383.09;5013951;28;20360;-58
2023/08/06 05:55:27;;;;;;;;;;;;;;;15.10;100.00;100380.44;4999829;28;20215;-58
2023/08/06 05:57:52;;;;;;;;;;;;;;;15.11;100.00;100379.56;5008599;28;19932;-57
2023/08/06 06:00:18;;;;;;;;;;;;;;;15.18;100.00;100384.78;5005339;28;19997;-58
2023/08/06 06:02:43;;;;;;;;;;;;;;;15.21;100.00;100384.81;5004271;28;20410;-58
2023/08/06 06:05:09;;;;;;;;;;;;;;;15.24;100.00;100390.91;5007242;28;19917;-58
2023/08/06 06:07:34;;;;;;;;;;;;;;;15.24;100.00;100388.28;5012211;28;19967;-57
2023/08/06 06:09:59;;;;;;;;;;;;;;;15.28;100.00;100394.41;5010278;28;19924;-58
2023/08/06 06:12:26;;;;;;;;;;;;;;;15.32;100.00;100397.91;5004283;28;20339;-58
2023/08/06 06:14:51;;;;;;;;;;;;;;;15.32;100.00;100393.50;5006724;28;19920;-58
2023/08/06 06:17:16;;;;;;;;;;;;;;;15.31;100.00;100412.78;5002597;28;19909;-58
2023/08/06 06:19:41;;;;;;;;;;;;;;;15.29;100.00;100410.16;4993839;28;20365;-58
2023/08/06 06:22:06;;;;;;;;;;;;;;;15.29;100.00;100410.16;5010836;28;19910;-58
2023/08/06 06:24:31;;;;;;;;;;;;;;;15.31;100.00;100418.03;5012679;28;19913;-58
2023/08/06 06:26:57;;;;;;;;;;;;;;;15.27;100.00;100426.78;4996591;28;19914;-58
2023/08/06 06:29:22;;;;;;;;;;;;;;;15.22;100.00;100423.28;4996677;28;20008;-58
2023/08/06 06:31:47;;;;;;;;;;;;;;;15.19;100.00;100428.53;4993601;28;19917;-58
2023/08/06 06:34:12;;;;;;;;;;;;;;;15.16;100.00;100425.94;4993372;28;20387;-58
2023/08/06 06:36:37;;;;;;;;;;;;;;;15.10;100.00;100440.78;4993647;28;20004;-58
2023/08/06 06:39:02;;;;;;;;;;;;;;;15.08;100.00;100439.94;5003113;28;19917;-58
2023/08/06 06:41:29;;;;;;;;;;;;;;;15.03;100.00;100441.69;4999211;28;19933;-58
2023/08/06 06:43:54;;;;;;;;;;;;;;;15.03;100.00;100452.19;4993323;28;19989;-58
2023/08/06 06:46:19;;;;;;;;;;;;;;;14.99;100.00;100442.59;5005579;28;19999;-58
2023/08/06 06:48:45;;;;;;;;;;;;;;;15.01;100.00;100451.31;5008368;28;19921;-58
2023/08/06 06:51:10;;;;;;;;;;;;;;;15.00;100.00;100452.19;5011622;28;19967;-58
2023/08/06 06:53:35;;;;;;;;;;;;;;;15.00;100.00;100448.69;5011611;28;19921;-57
2023/08/06 06:56:04;;;;;;;;;;;;;;;14.98;100.00;100448.69;5000629;28;19971;-58
2023/08/06 06:58:29;;;;;;;;;;;;;;;15.03;100.00;100449.56;5004551;28;19924;-58
2023/08/06 07:00:54;;;;;;;;;;;;;;;15.10;100.00;100461.78;5010206;28;19995;-58
2023/08/06 07:03:20;;;;;;;;;;;;;;;14.81;100.00;100464.44;5003375;28;19913;-58
2023/08/06 07:05:45;;;;;;;;;;;;;;;14.60;100.00;100466.16;5004302;28;19917;-58
2023/08/06 07:08:11;;;;;;;;;;;;;;;14.40;100.00;100471.38;4998130;28;20375;-57
2023/08/06 07:10:36;;;;;;;;;;;;;;;14.36;100.00;100471.38;5011062;28;20397;-57
2023/08/06 07:13:01;;;;;;;;;;;;;;;14.41;100.00;100475.75;5001653;28;19917;-57
2023/08/06 07:15:26;;;;;;;;;;;;;;;14.33;100.00;100477.47;5007885;28;20410;-57
2023/08/06 07:17:52;;;;;;;;;;;;;;;14.28;100.00;100484.47;5005547;28;20015;-57
2023/08/06 07:20:17;;;;;;;;;;;;;;;14.22;100.00;100492.28;5008566;28;19967;-57
2023/08/06 07:22:43;;;;;;;;;;;;;;;14.24;100.00;100491.41;5009240;28;19924;-57
2023/08/06 07:25:08;;;;;;;;;;;;;;;14.26;100.00;100507.16;5008141;28;19921;-56
2023/08/06 07:27:34;;;;;;;;;;;;;;;14.05;100.00;100498.34;5009087;28;20299;-57
2023/08/06 07:29:59;;;;;;;;;;;;;;;14.01;100.00;100511.44;5009449;28;19976;-57
2023/08/06 07:32:24;;;;;;;;;;;;;;;14.08;100.00;100515.84;5008239;28;19913;-57
2023/08/06 07:34:49;;;;;;;;;;;;;;;14.01;100.00;100522.78;5007039;28;19918;-57
2023/08/06 07:37:15;;;;;;;;;;;;;;;14.01;100.00;100520.16;5002681;28;20136;-57
2023/08/06 07:39:41;;;;;;;;;;;;;;;14.18;100.00;100521.97;5009021;28;19913;-57
2023/08/06 07:42:07;;;;;;;;;;;;;;;14.06;100.00;100522.78;5006991;28;19921;-57
2023/08/06 07:44:32;;;;;;;;;;;;;;;13.98;100.00;100535.88;5007608;28;19921;-57
2023/08/06 07:46:57;;;;;;;;;;;;;;;13.94;100.00;100536.72;5004282;28;19920;-57
2023/08/06 07:49:23;;;;;;;;;;;;;;;13.96;100.00;100544.59;5011583;28;20311;-57
2023/08/06 07:51:48;;;;;;;;;;;;;;;13.98;100.00;100543.72;5009985;28;19920;-57
2023/08/06 07:54:14;;;;;;;;;;;;;;;14.09;100.00;100538.53;5003394;28;19921;-56
2023/08/06 07:56:39;;;;;;;;;;;;;;;13.88;100.00;100548.03;5005510;28;19975;-56
2023/08/06 07:59:04;;;;;;;;;;;;;;;13.76;100.00;100540.13;5007050;28;19917;-56
2023/08/06 08:01:29;;;;;;;;;;;;;;;13.79;100.00;100548.00;5004380;28;19921;-56
2023/08/06 08:03:54;;;;;;;;;;;;;;;13.75;100.00;100556.69;4982174;28;19984;-56
2023/08/06 08:06:20;;;;;;;;;;;;;;;13.79;100.00;100547.09;4991435;28;19917;-57
2023/08/06 08:08:45;;;;;;;;;;;;;;;13.72;100.00;100552.31;5002480;28;20028;-56
2023/08/06 08:11:10;;;;;;;;;;;;;;;13.72;100.00;100557.56;5008256;28;19920;-56
2023/08/06 08:13:35;;;;;;;;;;;;;;;13.78;100.00;100556.72;5011456;28;19914;-56
2023/08/06 08:16:01;;;;;;;;;;;;;;;13.74;100.00;100552.31;5006395;28;19921;-56
2023/08/06 08:18:26;;;;;;;;;;;;;;;13.80;100.00;100552.38;5000885;28;19914;-56
2023/08/06 08:20:51;;;;;;;;;;;;;;;13.83;100.00;100555.00;5007917;28;19917;-57
2023/08/06 08:23:17;;;;;;;;;;;;;;;13.83;100.00;100564.59;5003105;28;20440;-56
2023/08/06 08:25:42;;;;;;;;;;;;;;;13.85;100.00;100563.75;5003577;28;19917;-56
2023/08/06 08:28:07;;;;;;;;;;;;;;;13.80;100.00;100560.25;5005584;28;19914;-56
2023/08/06 08:30:33;;;;;;;;;;;;;;;13.84;100.00;100564.59;5002877;28;19928;-56
2023/08/06 08:32:58;;;;;;;;;;;;;;;13.80;100.00;100567.19;4998472;28;19928;-56
2023/08/06 08:35:23;;;;;;;;;;;;;;;13.77;100.00;100569.81;5002247;28;19917;-56
2023/08/06 08:37:48;;;;;;;;;;;;;;;13.91;100.00;100562.91;4999248;28;19967;-56
2023/08/06 08:40:14;;;;;;;;;;;;;;;13.91;100.00;100576.00;4999439;28;20039;-56
2023/08/06 08:42:39;;;;;;;;;;;;;;;13.87;100.00;100567.22;5009020;28;19937;-56
2023/08/06 08:45:07;;;;;;;;;;;;;;;13.94;100.00;100572.53;5000111;28;19910;-56
2023/08/06 08:47:33;;;;;;;;;;;;;;;13.97;100.00;100583.88;4999776;28;19909;-56
2023/08/06 08:49:59;;;;;;;;;;;;;;;13.99;100.00;100579.53;4994345;28;19913;-56
2023/08/06 08:52:25;;;;;;;;;;;;;;;14.06;100.00;100586.56;5000014;28;19941;-56
2023/08/06 08:54:52;;;;;;;;;;;;;;;13.97;100.00;100591.75;4997001;28;19984;-56
2023/08/06 08:57:18;;;;;;;;;;;;;;;14.00;100.00;100597.00;4997629;28;19920;-56
2023/08/06 08:59:43;;;;;;;;;;;;;;;14.11;100.00;100596.16;5008273;28;19913;-56
2023/08/06 09:02:11;;;;;;;;;;;;;;;13.96;100.00;100605.72;5007514;28;20315;-56
2023/08/06 09:04:36;;;;;;;;;;;;;;;14.05;100.00;100603.16;4999163;28;20410;-56
2023/08/06 09:07:02;;;;;;;;;;;;;;;13.98;100.00;100610.97;5006361;28;20407;-56
2023/08/06 09:09:33;;;;;;;;;;;;;;;13.98;100.00;100616.22;4994736;28;19943;-56
2023/08/06 09:12:01;;;;;;;;;;;;;;;14.00;100.00;100614.47;5011198;28;19913;-56
2023/08/06 09:14:26;;;;;;;;;;;;;;;14.17;100.00;100620.66;4998314;28;19921;-56
2023/08/06 09:16:51;;;;;;;;;;;;;;;13.96;100.00;100626.69;5012809;28;19983;-56
2023/08/06 09:19:17;;;;;;;;;;;;;;;14.04;100.00;100627.59;4995015;28;20404;-56
2023/08/06 09:21:42;;;;;;;;;;;;;;;14.01;100.00;100638.03;5001882;28;19968;-56
2023/08/06 09:24:11;;;;;;;;;;;;;;;14.00;100.00;100635.41;5002093;28;19925;-56
2023/08/06 09:26:40;;;;;;;;;;;;;;;13.95;100.00;100647.59;5005923;28;19913;-55
2023/08/06 09:29:07;;;;;;;;;;;;;;;13.95;100.00;100643.25;5013305;28;19991;-56
2023/08/06 09:31:34;;;;;;;;;;;;;;;13.99;100.00;100650.28;5011809;28;20377;-56
2023/08/06 09:33:59;;;;;;;;;;;;;;;14.00;100.00;100653.75;4996094;28;19922;-56
2023/08/06 09:36:24;;;;;;;;;;;;;;;14.00;100.00;100652.00;5010834;28;19917;-56
2023/08/06 09:38:50;;;;;;;;;;;;;;;13.94;100.00;100664.19;5007962;28;19910;-56
2023/08/06 09:41:25;;;;;;;;;;;;;;;14.07;100.00;100664.28;5014132;28;19910;-56
2023/08/06 09:43:51;;;;;;;;;;;;;;;14.00;100.00;100661.63;5013435;28;19917;-56
2023/08/06 09:46:16;;;;;;;;;;;;;;;13.96;100.00;100667.69;5012072;28;19913;-56
2023/08/06 09:48:44;;;;;;;;;;;;;;;14.00;100.00;100661.63;4999168;28;21678;-56
2023/08/06 09:51:10;;;;;;;;;;;;;;;14.06;100.00;100659.03;5008583;28;20003;-56
2023/08/06 09:53:36;;;;;;;;;;;;;;;13.97;100.00;100670.31;4997431;28;19914;-55
2023/08/06 09:56:02;;;;;;;;;;;;;;;13.98;100.00;100674.72;5009043;28;19917;-56
2023/08/06 09:58:27;;;;;;;;;;;;;;;14.00;100.00;100672.97;4995311;28;19919;-56
2023/08/06 10:00:53;;;;;;;;;;;;;;;13.88;100.00;100672.88;5013276;28;20047;-56
2023/08/06 10:03:18;;;;;;;;;;;;;;;13.96;100.00;100676.44;5007067;28;19988;-56
2023/08/06 10:05:44;;;;;;;;;;;;;;;13.98;100.00;100682.56;4984196;28;20052;-56
2023/08/06 10:08:09;;;;;;;;;;;;;;;13.90;100.00;100692.09;5011827;28;20141;-56
2023/08/06 10:10:35;;;;;;;;;;;;;;;14.02;100.00;100686.97;5008829;28;19909;-56
2023/08/06 10:13:01;;;;;;;;;;;;;;;13.88;100.00;100691.22;5013407;28;20015;-56
2023/08/06 10:15:28;;;;;;;;;;;;;;;13.93;100.00;100688.63;5007589;28;20407;-56
2023/08/06 10:17:55;;;;;;;;;;;;;;;13.94;100.00;100691.25;4996174;28;19913;-56
2023/08/06 10:20:22;;;;;;;;;;;;;;;13.89;100.00;100688.63;4996896;28;19921;-56
2023/08/06 10:22:59;;;;;;;;;;;;;;;13.95;100.00;100693.03;5001817;28;20404;-56
2023/08/06 10:25:24;;;;;;;;;;;;;;;13.95;100.00;100692.13;4994315;28;19913;-56
2023/08/06 10:27:49;;;;;;;;;;;;;;;14.05;100.00;100694.84;4995433;28;19917;-56
2023/08/06 10:30:28;;;;;;;;;;;;;;;14.01;100.00;100700.06;5004409;28;19921;-56
2023/08/06 10:33:00;;;;;;;;;;;;;;;13.99;100.00;100700.03;4996242;28;20037;-56
2023/08/06 10:35:32;;;;;;;;;;;;;;;14.01;100.00;100698.31;4994954;28;19918;-56
2023/08/06 10:38:08;;;;;;;;;;;;;;;14.08;100.00;100701.84;5011414;28;19922;-56
2023/08/06 10:40:34;;;;;;;;;;;;;;;14.13;100.00;100691.41;4993566;28;20034;-56
2023/08/06 10:43:00;;;;;;;;;;;;;;;14.20;100.00;100707.16;4982390;28;19995;-56
2023/08/06 10:45:28;;;;;;;;;;;;;;;14.20;100.00;100703.66;5005713;28;20412;-56
2023/08/06 10:47:55;;;;;;;;;;;;;;;14.22;100.00;100709.78;5000049;28;19999;-56
2023/08/06 10:50:20;;;;;;;;;;;;;;;14.20;100.00;100704.53;5008925;28;19920;-56
2023/08/06 10:52:46;;;;;;;;;;;;;;;14.38;100.00;100713.38;4998235;28;19929;-56
2023/08/06 10:55:12;;;;;;;;;;;;;;;14.38;100.00;100711.66;4998856;28;20347;-56
2023/08/06 10:57:37;;;;;;;;;;;;;;;14.44;100.00;100713.44;5004371;28;19913;-56
2023/08/06 11:00:04;;;;;;;;;;;;;;;14.35;100.00;100710.75;5004459;28;20380;-56
2023/08/06 11:02:32;;;;;;;;;;;;;;;14.43;100.00;100711.66;5003501;28;20403;-55
2023/08/06 11:04:58;;;;;;;;;;;;;;;14.34;100.00;100717.75;5004461;28;19917;-55
2023/08/06 11:07:28;;;;;;;;;;;;;;;14.33;100.00;100723.84;4999886;28;19987;-56
2023/08/06 11:10:00;;;;;;;;;;;;;;;14.32;100.00;100727.31;4998491;28;19996;-56
2023/08/06 11:12:25;;;;;;;;;;;;;;;14.33;100.00;100729.09;5011980;28;19999;-56
2023/08/06 11:14:50;;;;;;;;;;;;;;;14.40;100.00;100728.25;5008521;28;20435;-56
2023/08/06 11:17:16;;;;;;;;;;;;;;;14.34;100.00;100725.59;5006880;28;19920;-56
2023/08/06 11:19:41;;;;;;;;;;;;;;;14.38;100.00;100722.13;4995432;28;19991;-56
2023/08/06 11:22:06;;;;;;;;;;;;;;;14.38;100.00;100723.88;4996645;28;19913;-56
2023/08/06 11:24:31;;;;;;;;;;;;;;;14.41;100.00;100722.16;5001270;28;19917;-56
2023/08/06 11:26:57;;;;;;;;;;;;;;;14.44;100.00;100730.03;4992846;28;20049;-56
2023/08/06 11:29:23;;;;;;;;;;;;;;;14.50;100.00;100726.56;5001012;28;19920;-56
2023/08/06 11:31:48;;;;;;;;;;;;;;;14.51;100.00;100725.72;5008377;28;19924;-56
2023/08/06 11:34:13;;;;;;;;;;;;;;;14.57;100.00;100736.22;5003462;28;19917;-55
2023/08/06 11:36:40;;;;;;;;;;;;;;;14.60;100.00;100728.38;4996486;28;20293;-55
2023/08/06 11:39:05;;;;;;;;;;;;;;;14.66;100.00;100730.19;5010818;28;19913;-56
2023/08/06 11:41:31;;;;;;;;;;;;;;;14.73;100.00;100724.09;5008735;28;20332;-55
2023/08/06 11:43:56;;;;;;;;;;;;;;;14.70;100.00;100729.34;5005228;28;19920;-56
2023/08/06 11:46:23;;;;;;;;;;;;;;;14.70;100.00;100731.06;5005441;28;19918;-56
2023/08/06 11:49:06;;;;;;;;;;;;;;;14.72;100.00;100727.56;5002980;28;19987;-56
2023/08/06 11:51:32;;;;;;;;;;;;;;;14.65;100.00;100731.03;5004146;28;19920;-56
2023/08/06 11:53:58;;;;;;;;;;;;;;;14.73;100.00;100734.59;5008787;28;19921;-56
2023/08/06 11:56:25;;;;;;;;;;;;;;;14.72;100.00;100732.81;5005717;28;19924;-55
2023/08/06 11:58:50;;;;;;;;;;;;;;;14.78;100.00;100732.84;4996980;28;20210;-56
2023/08/06 12:01:15;;;;;;;;;;;;;;;14.78;100.00;100732.84;5000029;28;19920;-55
2023/08/06 12:03:40;;;;;;;;;;;;;;;14.84;100.00;100739.88;5010160;28;20342;-56
2023/08/06 12:06:09;;;;;;;;;;;;;;;14.84;100.00;100731.13;5003728;28;19936;-56
2023/08/06 12:08:34;;;;;;;;;;;;;;;14.86;100.00;100734.63;5003871;28;19917;-56
2023/08/06 12:10:59;;;;;;;;;;;;;;;14.90;100.00;100737.28;5005162;28;19922;-56
2023/08/06 12:13:25;;;;;;;;;;;;;;;14.89;100.00;100742.53;5006873;28;19931;-56
2023/08/06 12:15:52;;;;;;;;;;;;;;;14.93;100.00;100742.56;4999227;28;19920;-56
2023/08/06 12:18:18;;;;;;;;;;;;;;;15.00;100.00;100743.44;5006290;28;19916;-56
2023/08/06 12:20:43;;;;;;;;;;;;;;;15.03;100.00;100743.44;5002345;28;19972;-55